createdAt,value
2018-07-06T00:01:49.451Z,6.63
2018-07-06T00:04:29.421Z,7.70
2018-07-06T00:07:10.188Z,7.83
2018-07-06T00:09:49.745Z,6.47
2018-07-06T00:12:29.547Z,7.37
2018-07-06T00:15:09.254Z,7.20
2018-07-06T00:17:49.268Z,7.33
2018-07-06T00:20:29.344Z,7.73
2018-07-06T00:23:09.257Z,6.63
2018-07-06T00:25:49.107Z,7.77
2018-07-06T00:28:28.728Z,8.10
2018-07-06T00:31:08.326Z,7.70
2018-07-06T00:33:49.525Z,7.83
2018-07-06T00:36:29.186Z,8.50
2018-07-06T00:39:08.788Z,7.40
2018-07-06T00:41:48.520Z,8.23
2018-07-06T00:44:28.220Z,9.00
2018-07-06T00:47:07.879Z,7.70
2018-07-06T00:49:47.512Z,6.10
2018-07-06T00:52:27.143Z,7.63
2018-07-06T00:55:06.785Z,7.90
2018-07-06T00:57:53.571Z,6.90
2018-07-06T01:00:33.481Z,7.17
2018-07-06T01:03:13.838Z,7.80
2018-07-06T01:05:53.389Z,7.67
2018-07-06T01:08:33.172Z,7.70
2018-07-06T01:11:12.764Z,8.37
2018-07-06T01:13:52.343Z,8.37
2018-07-06T01:16:32.176Z,7.83
2018-07-06T01:19:12.792Z,7.43
2018-07-06T01:21:52.901Z,7.37
2018-07-06T01:24:32.819Z,8.27
2018-07-06T01:27:12.628Z,7.67
2018-07-06T01:29:52.285Z,6.83
2018-07-06T01:32:31.813Z,8.33
2018-07-06T01:35:11.723Z,8.00
2018-07-06T01:37:51.376Z,7.10
2018-07-06T01:40:31.120Z,7.63
2018-07-06T01:43:10.592Z,6.83
2018-07-06T01:45:50.147Z,8.43
2018-07-06T01:48:29.853Z,8.77
2018-07-06T01:51:09.726Z,7.30
2018-07-06T01:53:49.280Z,7.33
2018-07-06T01:56:29.104Z,7.83
2018-07-06T01:59:08.629Z,7.90
2018-07-06T02:07:29.392Z,7.80
2018-07-06T02:10:09.022Z,6.77
2018-07-06T02:12:49.301Z,8.07
2018-07-06T02:15:28.907Z,7.43
2018-07-06T02:18:09.275Z,6.33
2018-07-06T02:20:48.828Z,7.07
2018-07-06T02:23:28.689Z,6.97
2018-07-06T02:26:08.244Z,8.57
2018-07-06T02:28:49.092Z,7.13
2018-07-06T02:31:28.755Z,7.67
2018-07-06T02:34:08.444Z,6.87
2018-07-06T02:36:47.960Z,7.37
2018-07-06T02:39:27.728Z,7.20
2018-07-06T02:42:07.197Z,6.70
2018-07-06T02:44:47.010Z,8.20
2018-07-06T02:47:26.660Z,8.10
2018-07-06T02:50:06.218Z,7.20
2018-07-06T02:52:45.893Z,7.03
2018-07-06T02:55:25.580Z,8.17
2018-07-06T02:58:05.901Z,8.43
2018-07-06T03:00:45.554Z,8.40
2018-07-06T03:03:26.626Z,8.17
2018-07-06T03:06:06.911Z,8.23
2018-07-06T03:08:46.672Z,8.20
2018-07-06T03:11:26.494Z,9.00
2018-07-06T03:14:06.172Z,8.00
2018-07-06T03:16:45.971Z,7.77
2018-07-06T03:19:26.435Z,8.67
2018-07-06T03:22:05.996Z,8.93
2018-07-06T03:24:46.504Z,7.97
2018-07-06T03:27:26.090Z,7.87
2018-07-06T03:30:06.305Z,8.50
2018-07-06T03:32:46.104Z,8.40
2018-07-06T03:35:26.275Z,9.03
2018-07-06T03:38:06.773Z,8.13
2018-07-06T03:40:46.359Z,8.07
2018-07-06T03:43:26.327Z,8.93
2018-07-06T03:46:05.913Z,7.90
2018-07-06T03:48:45.609Z,7.47
2018-07-06T03:51:25.155Z,8.03
2018-07-06T03:54:04.847Z,7.30
2018-07-06T03:56:44.380Z,7.70
2018-07-06T03:59:24.071Z,7.20
2018-07-06T04:02:03.652Z,7.97
2018-07-06T04:04:43.376Z,8.60
2018-07-06T04:07:24.620Z,8.90
2018-07-06T04:10:04.166Z,6.90
2018-07-06T04:12:43.588Z,7.37
2018-07-06T04:15:23.488Z,9.13
2018-07-06T04:18:03.128Z,7.87
2018-07-06T04:20:42.880Z,8.87
2018-07-06T04:23:22.548Z,6.93
2018-07-06T04:26:02.451Z,8.20
2018-07-06T04:28:42.063Z,7.03
2018-07-06T04:31:21.836Z,7.83
2018-07-06T04:34:01.760Z,8.07
2018-07-06T04:36:41.524Z,7.80
2018-07-06T04:39:21.033Z,7.90
2018-07-06T04:42:00.760Z,8.63
2018-07-06T04:44:40.956Z,7.60
2018-07-06T04:47:21.028Z,7.20
2018-07-06T04:50:00.612Z,6.87
2018-07-06T04:52:40.418Z,6.70
2018-07-06T04:55:19.927Z,7.57
2018-07-06T04:58:00.591Z,8.17
2018-07-06T05:00:40.546Z,7.40
2018-07-06T05:03:20.275Z,7.80
2018-07-06T05:05:59.849Z,7.53
2018-07-06T05:08:39.548Z,7.47
2018-07-06T05:11:19.188Z,8.27
2018-07-06T05:13:59.000Z,7.80
2018-07-06T05:16:38.617Z,8.37
2018-07-06T05:19:18.331Z,9.93
2018-07-06T05:21:58.092Z,9.03
2018-07-06T05:24:38.036Z,9.90
2018-07-06T05:27:18.574Z,10.90
2018-07-06T05:29:58.193Z,10.80
2018-07-06T05:32:37.851Z,11.37
2018-07-06T05:35:18.248Z,10.30
2018-07-06T05:37:57.828Z,9.60
2018-07-06T05:43:27.859Z,11.13
2018-07-06T05:46:07.401Z,10.57
2018-07-06T05:48:47.132Z,11.73
2018-07-06T05:51:26.976Z,12.33
2018-07-06T05:54:06.505Z,11.23
2018-07-06T05:56:46.171Z,10.70
2018-07-06T05:59:25.848Z,10.83
2018-07-06T06:02:06.390Z,12.43
2018-07-06T06:04:45.977Z,11.33
2018-07-06T06:07:24.951Z,10.97
2018-07-06T06:09:54.479Z,10.97
2018-07-06T06:12:24.360Z,14.20
2018-07-06T06:14:53.493Z,10.10
2018-07-06T06:17:22.124Z,11.70
2018-07-06T06:19:50.905Z,10.67
2018-07-06T06:22:19.749Z,11.23
2018-07-06T06:24:48.863Z,9.43
2018-07-06T06:27:17.560Z,10.57
2018-07-06T06:29:46.352Z,10.37
2018-07-06T06:32:15.562Z,10.83
2018-07-06T06:34:44.832Z,12.50
2018-07-06T06:37:14.260Z,11.60
2018-07-06T06:39:43.768Z,10.77
2018-07-06T06:42:13.308Z,11.23
2018-07-06T06:44:42.598Z,9.53
2018-07-06T06:47:12.345Z,10.67
2018-07-06T06:49:41.902Z,10.77
2018-07-06T06:52:12.019Z,10.90
2018-07-06T06:54:41.535Z,12.07
2018-07-06T06:57:10.752Z,12.77
2018-07-06T06:59:40.179Z,11.10
2018-07-06T07:02:09.206Z,11.90
2018-07-06T07:04:39.214Z,11.80
2018-07-06T07:07:08.134Z,16.13
2018-07-06T07:09:37.214Z,14.00
2018-07-06T07:12:06.160Z,10.43
2018-07-06T07:14:34.983Z,11.23
2018-07-06T07:17:04.483Z,12.60
2018-07-06T07:19:33.359Z,11.60
2018-07-06T07:22:02.273Z,10.77
2018-07-06T07:24:30.864Z,12.10
2018-07-06T07:27:01.462Z,12.90
2018-07-06T07:29:30.813Z,12.57
2018-07-06T07:31:59.725Z,12.20
2018-07-06T07:34:28.523Z,10.90
2018-07-06T07:36:57.180Z,11.20
2018-07-06T07:39:25.980Z,11.37
2018-07-06T07:41:54.701Z,11.37
2018-07-06T07:44:23.349Z,12.17
2018-07-06T07:46:51.925Z,12.33
2018-07-06T07:49:20.615Z,11.80
2018-07-06T07:52:04.488Z,10.13
2018-07-06T07:54:44.209Z,10.53
2018-07-06T07:57:12.913Z,9.50
2018-07-06T07:59:42.034Z,11.13
2018-07-06T08:02:11.472Z,12.80
2018-07-06T08:04:40.356Z,10.93
2018-07-06T08:07:08.971Z,11.80
2018-07-06T08:09:37.892Z,10.83
2018-07-06T08:12:06.592Z,10.07
2018-07-06T08:14:35.375Z,9.60
2018-07-06T08:17:04.056Z,10.33
2018-07-06T08:19:32.781Z,10.20
2018-07-06T08:22:02.264Z,8.43
2018-07-06T08:24:30.887Z,11.07
2018-07-06T08:26:59.632Z,10.27
2018-07-06T08:29:28.193Z,10.90
2018-07-06T08:31:56.828Z,10.70
2018-07-06T08:40:06.928Z,10.03
2018-07-06T08:42:36.415Z,9.97
2018-07-06T08:45:05.392Z,12.13
2018-07-06T08:47:34.204Z,10.50
2018-07-06T08:50:03.368Z,8.77
2018-07-06T08:52:31.959Z,11.33
2018-07-06T08:55:00.522Z,9.90
2018-07-06T08:57:30.259Z,10.27
2018-07-06T08:59:58.821Z,10.20
2018-07-06T09:02:27.693Z,12.40
2018-07-06T09:04:57.021Z,12.27
2018-07-06T09:07:25.878Z,10.30
2018-07-06T09:09:55.243Z,10.40
2018-07-06T09:12:23.831Z,9.80
2018-07-06T09:14:52.392Z,10.90
2018-07-06T09:17:21.488Z,11.93
2018-07-06T09:19:50.989Z,11.73
2018-07-06T09:22:19.763Z,13.17
2018-07-06T09:24:49.856Z,10.50
2018-07-06T09:27:18.428Z,11.67
2018-07-06T09:29:47.035Z,11.90
2018-07-06T09:32:15.614Z,14.53
2018-07-06T09:34:44.215Z,10.43
2018-07-06T09:37:13.093Z,14.23
2018-07-06T09:39:42.584Z,11.00
2018-07-06T09:42:11.339Z,12.67
2018-07-06T09:44:40.017Z,14.03
2018-07-06T09:47:08.591Z,13.03
2018-07-06T09:49:37.529Z,13.50
2018-07-06T09:52:06.132Z,13.00
2018-07-06T09:54:34.756Z,12.70
2018-07-06T09:57:03.508Z,12.60
2018-07-06T09:59:32.136Z,12.40
2018-07-06T10:02:00.740Z,13.10
2018-07-06T10:04:29.364Z,13.70
2018-07-06T10:06:58.765Z,12.60
2018-07-06T10:09:27.769Z,14.37
2018-07-06T10:11:56.780Z,12.67
2018-07-06T10:14:25.452Z,14.60
2018-07-06T10:16:54.221Z,14.13
2018-07-06T10:19:22.961Z,13.40
2018-07-06T10:21:51.579Z,15.20
2018-07-06T10:24:20.358Z,14.03
2018-07-06T10:26:48.974Z,15.73
2018-07-06T10:31:29.046Z,12.80
2018-07-06T10:33:57.645Z,13.67
2018-07-06T10:36:26.407Z,14.57
2018-07-06T10:38:55.025Z,17.40
2018-07-06T10:41:23.632Z,13.07
2018-07-06T10:43:52.182Z,14.70
2018-07-06T10:46:20.919Z,15.60
2018-07-06T10:48:49.483Z,13.60
2018-07-06T10:51:18.043Z,14.10
2018-07-06T10:53:46.608Z,13.13
2018-07-06T10:56:15.188Z,12.93
2018-07-06T10:58:43.999Z,14.70
2018-07-06T11:01:12.752Z,11.80
2018-07-06T11:03:41.676Z,14.00
2018-07-06T11:06:10.292Z,13.20
2018-07-06T11:08:38.920Z,12.87
2018-07-06T11:11:07.492Z,12.17
2018-07-06T11:13:36.049Z,14.43
2018-07-06T11:16:04.636Z,14.80
2018-07-06T11:18:33.247Z,14.70
2018-07-06T11:21:01.860Z,12.43
2018-07-06T11:23:30.411Z,13.73
2018-07-06T11:25:58.991Z,13.33
2018-07-06T11:28:27.638Z,14.23
2018-07-06T11:30:56.184Z,13.77
2018-07-06T11:33:24.804Z,12.07
2018-07-06T11:35:53.351Z,12.00
2018-07-06T11:38:22.015Z,10.87
2018-07-06T11:40:50.604Z,11.50
2018-07-06T11:43:19.204Z,10.37
2018-07-06T11:45:47.748Z,12.33
2018-07-06T11:48:16.397Z,10.67
2018-07-06T11:50:44.956Z,10.20
2018-07-06T11:53:13.584Z,11.40
2018-07-06T11:55:42.174Z,11.23
2018-07-06T11:58:10.740Z,10.20
2018-07-06T12:00:39.328Z,9.20
2018-07-06T12:03:07.968Z,10.23
2018-07-06T12:05:37.358Z,10.57
2018-07-06T12:08:05.990Z,9.70
2018-07-06T12:10:34.721Z,9.17
2018-07-06T12:13:03.472Z,9.43
2018-07-06T12:15:32.365Z,8.20
2018-07-06T12:18:01.100Z,8.93
2018-07-06T12:20:29.668Z,9.17
2018-07-06T12:22:58.248Z,10.43
2018-07-06T12:25:26.909Z,8.70
2018-07-06T12:27:55.666Z,9.30
2018-07-06T12:30:24.176Z,8.60
2018-07-06T12:32:52.691Z,8.27
2018-07-06T12:35:21.236Z,8.50
2018-07-06T12:37:49.833Z,10.33
2018-07-06T12:40:19.220Z,9.93
2018-07-06T12:42:47.782Z,10.33
2018-07-06T12:45:16.967Z,7.90
2018-07-06T12:47:45.523Z,9.87
2018-07-06T12:50:14.133Z,9.17
2018-07-06T12:52:42.701Z,9.90
2018-07-06T12:55:11.528Z,9.90
2018-07-06T12:57:40.123Z,7.83
2018-07-06T13:00:08.742Z,10.00
2018-07-06T13:02:37.326Z,8.67
2018-07-06T13:05:07.021Z,8.83
2018-07-06T13:07:35.630Z,7.53
2018-07-06T13:10:04.267Z,9.20
2018-07-06T13:12:32.892Z,10.20
2018-07-06T13:15:15.724Z,7.27
2018-07-06T13:17:44.281Z,8.50
2018-07-06T13:20:13.392Z,8.13
2018-07-06T13:22:41.949Z,9.10
2018-07-06T13:25:11.215Z,7.00
2018-07-06T13:27:40.284Z,7.87
2018-07-06T13:30:09.687Z,7.60
2018-07-06T13:32:40.551Z,8.53
2018-07-06T13:35:12.940Z,7.70
2018-07-06T13:37:41.514Z,6.60
2018-07-06T13:40:10.103Z,6.33
2018-07-06T13:42:38.748Z,8.10
2018-07-06T13:45:07.400Z,6.63
2018-07-06T13:47:36.074Z,7.03
2018-07-06T13:50:04.716Z,7.53
2018-07-06T13:52:33.301Z,8.43
2018-07-06T13:55:02.015Z,11.57
2018-07-06T13:57:30.817Z,16.10
2018-07-06T13:59:59.371Z,9.53
2018-07-06T14:02:27.958Z,9.10
2018-07-06T14:04:57.333Z,12.83
2018-07-06T14:07:25.966Z,13.53
2018-07-06T14:09:54.847Z,12.50
2018-07-06T14:12:23.553Z,9.00
2018-07-06T14:14:52.245Z,11.00
2018-07-06T14:17:20.866Z,9.40
2018-07-06T14:19:49.462Z,7.20
2018-07-06T14:22:18.064Z,6.40
2018-07-06T14:24:46.624Z,7.80
2018-07-06T14:27:15.180Z,8.50
2018-07-06T14:29:44.032Z,8.07
2018-07-06T14:32:12.717Z,7.60
2018-07-06T14:34:41.544Z,6.53
2018-07-06T14:37:10.316Z,8.00
2018-07-06T14:39:40.725Z,7.57
2018-07-06T14:42:09.561Z,8.33
2018-07-06T14:44:40.375Z,6.70
2018-07-06T14:47:09.033Z,9.13
2018-07-06T14:49:40.464Z,7.63
2018-07-06T14:52:09.088Z,8.47
2018-07-06T14:54:40.356Z,9.23
2018-07-06T14:57:09.064Z,10.00
2018-07-06T15:02:46.272Z,9.93
2018-07-06T15:05:14.841Z,9.97
2018-07-06T15:07:43.444Z,10.70
2018-07-06T15:10:12.528Z,8.90
2018-07-06T15:12:41.255Z,9.53
2018-07-06T15:15:09.817Z,12.60
2018-07-06T15:17:38.485Z,10.17
2018-07-06T15:20:07.308Z,9.93
2018-07-06T15:22:35.951Z,9.23
2018-07-06T15:25:04.584Z,9.20
2018-07-06T15:27:33.146Z,9.20
2018-07-06T15:30:02.009Z,10.97
2018-07-06T15:32:31.072Z,8.97
2018-07-06T15:34:59.664Z,9.10
2018-07-06T15:37:28.267Z,13.00
2018-07-06T15:39:56.932Z,10.23
2018-07-06T15:42:25.512Z,12.60
2018-07-06T15:44:54.070Z,14.40
2018-07-06T15:47:22.677Z,12.87
2018-07-06T15:49:51.411Z,15.13
2018-07-06T15:52:20.004Z,13.67
2018-07-06T15:54:48.664Z,14.80
2018-07-06T15:57:18.119Z,10.30
2018-07-06T15:59:46.715Z,10.90
2018-07-06T16:02:15.304Z,11.67
2018-07-06T16:04:43.877Z,11.20
2018-07-06T16:07:14.229Z,10.60
2018-07-06T16:09:42.834Z,10.70
2018-07-06T16:12:11.395Z,11.03
2018-07-06T16:14:40.113Z,9.07
2018-07-06T16:17:08.707Z,9.60
2018-07-06T16:19:37.270Z,10.43
2018-07-06T16:22:06.017Z,9.47
2018-07-06T16:24:34.656Z,10.10
2018-07-06T16:27:03.327Z,10.50
2018-07-06T16:29:31.871Z,10.43
2018-07-06T16:32:00.416Z,9.60
2018-07-06T16:34:28.978Z,10.60
2018-07-06T16:36:57.560Z,10.20
2018-07-06T16:39:26.201Z,9.50
2018-07-06T16:41:54.780Z,10.23
2018-07-06T16:44:23.529Z,9.80
2018-07-06T16:46:52.172Z,9.90
2018-07-06T16:49:19.735Z,10.10
2018-07-06T16:51:48.368Z,13.70
2018-07-06T16:54:16.902Z,12.23
2018-07-06T16:56:45.468Z,13.70
2018-07-06T16:59:14.203Z,11.57
2018-07-06T17:01:42.761Z,11.93
2018-07-06T17:04:11.307Z,9.83
2018-07-06T17:06:40.089Z,9.83
2018-07-06T17:09:08.855Z,14.97
2018-07-06T17:11:37.389Z,13.27
2018-07-06T17:14:06.238Z,11.70
2018-07-06T17:16:34.893Z,10.73
2018-07-06T17:19:03.529Z,9.83
2018-07-06T17:21:32.126Z,11.30
2018-07-06T17:24:00.710Z,9.87
2018-07-06T17:26:29.320Z,11.50
2018-07-06T17:28:57.888Z,8.93
2018-07-06T17:31:26.780Z,10.90
2018-07-06T17:33:55.347Z,11.00
2018-07-06T17:36:24.123Z,10.60
2018-07-06T17:38:52.656Z,9.90
2018-07-06T17:41:21.386Z,9.40
2018-07-06T17:43:49.964Z,9.00
2018-07-06T17:46:18.602Z,9.90
2018-07-06T17:48:47.146Z,9.03
2018-07-06T17:51:15.951Z,9.30
2018-07-06T17:53:44.495Z,9.10
2018-07-06T17:56:13.060Z,9.57
2018-07-06T17:58:41.783Z,9.30
2018-07-06T18:01:10.364Z,9.10
2018-07-06T18:03:39.040Z,10.17
2018-07-06T18:06:07.751Z,9.20
2018-07-06T18:08:37.105Z,9.80
2018-07-06T18:11:05.904Z,9.50
2018-07-06T18:13:36.943Z,9.13
2018-07-06T18:16:05.742Z,9.60
2018-07-06T18:18:34.521Z,8.73
2018-07-06T18:21:03.177Z,8.13
2018-07-06T18:23:31.756Z,8.10
2018-07-06T18:26:00.325Z,8.00
2018-07-06T18:28:28.880Z,7.93
2018-07-06T18:30:57.507Z,8.17
2018-07-06T18:33:26.151Z,7.90
2018-07-06T18:35:54.689Z,8.20
2018-07-06T18:38:23.324Z,7.93
2018-07-06T18:40:51.899Z,7.17
2018-07-06T18:43:20.476Z,6.80
2018-07-06T18:45:49.414Z,6.93
2018-07-06T18:48:18.015Z,7.73
2018-07-06T18:50:46.796Z,6.80
2018-07-06T18:53:15.396Z,6.80
2018-07-06T18:55:44.032Z,6.73
2018-07-06T18:58:12.592Z,6.87
2018-07-06T19:00:41.276Z,7.47
2018-07-06T19:03:09.839Z,6.70
2018-07-06T19:05:38.521Z,7.20
2018-07-06T19:08:07.140Z,7.57
2018-07-06T19:10:35.723Z,7.17
2018-07-06T19:13:04.435Z,7.40
2018-07-06T19:15:33.965Z,6.50
2018-07-06T19:18:02.568Z,7.57
2018-07-06T19:20:31.242Z,7.40
2018-07-06T19:22:59.795Z,7.53
2018-07-06T19:25:28.558Z,7.50
2018-07-06T19:27:58.148Z,6.87
2018-07-06T19:30:26.891Z,8.77
2018-07-06T19:32:55.479Z,8.27
2018-07-06T19:35:24.220Z,6.50
2018-07-06T19:37:52.808Z,7.43
2018-07-06T19:40:21.367Z,7.60
2018-07-06T19:42:50.074Z,6.87
2018-07-06T19:45:18.636Z,7.50
2018-07-06T19:47:47.176Z,6.87
2018-07-06T19:50:15.860Z,6.80
2018-07-06T19:52:44.438Z,7.30
2018-07-06T19:55:13.228Z,6.77
2018-07-06T19:57:41.818Z,7.17
2018-07-06T20:00:10.471Z,6.30
2018-07-06T20:02:39.049Z,6.27
2018-07-06T20:05:07.964Z,6.83
2018-07-06T20:07:37.398Z,7.27
2018-07-06T20:10:06.379Z,7.27
2018-07-06T20:12:35.028Z,6.80
2018-07-06T20:15:03.636Z,6.90
2018-07-06T20:17:32.229Z,6.97
2018-07-06T20:20:01.061Z,6.80
2018-07-06T20:22:29.744Z,5.73
2018-07-06T20:24:58.366Z,6.30
2018-07-06T20:27:26.961Z,5.93
2018-07-06T20:29:56.522Z,6.43
2018-07-06T20:32:25.061Z,6.90
2018-07-06T20:34:53.642Z,5.97
2018-07-06T20:37:22.246Z,7.10
2018-07-06T20:39:50.824Z,6.20
2018-07-06T20:42:19.450Z,6.90
2018-07-06T20:44:48.018Z,6.40
2018-07-06T20:47:16.637Z,6.03
2018-07-06T20:49:45.176Z,6.17
2018-07-06T20:52:13.797Z,6.30
2018-07-06T20:54:42.335Z,6.73
2018-07-06T20:57:10.901Z,6.13
2018-07-06T20:59:39.641Z,6.50
2018-07-06T21:02:08.312Z,7.43
2018-07-06T21:04:36.874Z,6.67
2018-07-06T21:07:05.910Z,6.47
2018-07-06T21:09:34.607Z,7.00
2018-07-06T21:12:03.562Z,6.30
2018-07-06T21:14:32.302Z,6.90
2018-07-06T21:17:00.885Z,7.27
2018-07-06T21:19:29.443Z,7.07
2018-07-06T21:21:58.073Z,6.87
2018-07-06T21:24:26.656Z,6.77
2018-07-06T21:26:55.216Z,6.90
2018-07-06T21:29:23.825Z,7.40
2018-07-06T21:31:52.579Z,8.97
2018-07-06T21:34:21.516Z,6.97
2018-07-06T21:39:40.309Z,7.27
2018-07-06T21:42:08.890Z,7.60
2018-07-06T21:44:37.662Z,8.77
2018-07-06T21:47:06.862Z,7.80
2018-07-06T21:49:35.682Z,8.00
2018-07-06T21:52:04.308Z,7.90
2018-07-06T21:57:23.409Z,7.73
2018-07-06T21:59:52.139Z,7.37
2018-07-06T22:02:20.945Z,7.43
2018-07-06T22:04:49.540Z,8.67
2018-07-06T22:07:18.890Z,8.87
2018-07-06T22:09:47.651Z,8.33
2018-07-06T22:12:16.224Z,7.17
2018-07-06T22:14:44.825Z,8.33
2018-07-06T22:17:14.008Z,8.57
2018-07-06T22:19:42.622Z,8.63
2018-07-06T22:22:11.257Z,8.90
2018-07-06T22:24:39.852Z,8.60
2018-07-06T22:27:08.400Z,8.80
2018-07-06T22:29:36.935Z,8.30
2018-07-06T22:32:05.572Z,9.23
2018-07-06T22:34:34.122Z,8.53
2018-07-06T22:37:02.703Z,8.70
2018-07-06T22:39:31.343Z,9.50
2018-07-06T22:41:59.856Z,9.13
2018-07-06T22:44:28.734Z,8.73
2018-07-06T22:46:57.337Z,10.33
2018-07-06T22:49:25.935Z,10.80
2018-07-06T22:51:54.517Z,10.90
2018-07-06T22:54:23.101Z,11.43
2018-07-06T22:56:51.751Z,9.33
2018-07-06T22:59:30.425Z,11.60
2018-07-06T23:01:59.107Z,10.10
2018-07-06T23:04:27.773Z,12.33
2018-07-06T23:06:56.315Z,11.20
2018-07-06T23:09:24.886Z,12.53
2018-07-06T23:11:53.584Z,11.90
2018-07-06T23:14:22.367Z,11.10
2018-07-06T23:16:50.937Z,12.50
2018-07-06T23:19:19.636Z,13.70
2018-07-06T23:21:48.228Z,11.40
2018-07-06T23:24:16.799Z,12.50
2018-07-06T23:26:45.407Z,13.83
2018-07-06T23:29:13.989Z,13.83
2018-07-06T23:34:32.851Z,14.43
2018-07-06T23:37:01.429Z,12.93
2018-07-06T23:39:29.975Z,13.07
2018-07-06T23:41:58.562Z,13.80
2018-07-06T23:44:27.116Z,13.97
2018-07-06T23:46:55.665Z,16.37
2018-07-06T23:49:24.219Z,14.53
2018-07-06T23:51:52.800Z,13.93
2018-07-06T23:54:21.390Z,12.60
2018-07-06T23:56:49.954Z,15.10
2018-07-06T23:59:18.518Z,13.13
